createdAt,value
2023-03-17T00:00:14.591Z,69.64
2023-03-17T00:01:17.107Z,69.25
2023-03-17T00:02:21.233Z,69.55
2023-03-17T00:03:25.599Z,69.48
2023-03-17T00:04:28.976Z,69.47
2023-03-17T00:05:33.272Z,69.38
2023-03-17T00:06:37.004Z,69.36
2023-03-17T00:07:39.407Z,69.23
2023-03-17T00:08:42.551Z,68.98
2023-03-17T00:09:44.875Z,69.42
2023-03-17T00:10:49.666Z,69.84
2023-03-17T00:11:51.826Z,69.60
2023-03-17T00:12:56.505Z,68.68
2023-03-17T00:13:58.606Z,69.26
2023-03-17T00:15:02.231Z,68.98
2023-03-17T00:16:05.281Z,69.42
2023-03-17T00:17:11.070Z,69.75
2023-03-17T00:18:16.423Z,69.53
2023-03-17T00:19:22.777Z,69.71
2023-03-17T00:20:27.836Z,69.92
2023-03-17T00:21:34.092Z,70.21
2023-03-17T00:22:36.295Z,69.82
2023-03-17T00:23:39.652Z,69.91
2023-03-17T00:24:42.688Z,69.98
2023-03-17T00:26:06.929Z,69.56
2023-03-17T00:27:13.377Z,69.74
2023-03-17T00:28:17.570Z,69.97
2023-03-17T00:29:21.110Z,69.84
2023-03-17T00:30:27.077Z,69.89
2023-03-17T00:31:30.736Z,69.95
2023-03-17T00:32:33.191Z,69.85
2023-03-17T00:33:37.170Z,70.08
2023-03-17T00:34:41.623Z,70.19
2023-03-17T00:35:46.387Z,70.27
2023-03-17T00:36:50.071Z,70.13
2023-03-17T00:37:54.068Z,69.97
2023-03-17T00:38:57.202Z,69.84
2023-03-17T00:40:01.648Z,69.99
2023-03-17T00:41:04.454Z,70.13
2023-03-17T00:42:07.768Z,70.08
2023-03-17T00:43:11.188Z,69.92
2023-03-17T00:44:14.380Z,70.23
2023-03-17T00:45:16.778Z,70.23
2023-03-17T00:46:23.438Z,70.02
2023-03-17T00:47:25.368Z,70.05
2023-03-17T00:48:29.791Z,69.99
2023-03-17T00:49:32.650Z,69.82
2023-03-17T00:50:35.489Z,69.63
2023-03-17T00:51:37.473Z,69.98
2023-03-17T00:52:40.645Z,69.54
2023-03-17T00:53:44.191Z,69.98
2023-03-17T00:54:46.992Z,69.83
2023-03-17T00:55:48.955Z,70.24
2023-03-17T00:56:53.412Z,70.22
2023-03-17T00:57:55.243Z,70.27
2023-03-17T00:59:02.628Z,70.23
2023-03-17T01:00:06.566Z,70.50
2023-03-17T01:01:09.640Z,70.08
2023-03-17T01:02:12.255Z,70.12
2023-03-17T01:03:16.400Z,70.24
2023-03-17T01:04:19.502Z,70.32
2023-03-17T01:05:23.692Z,70.23
2023-03-17T01:06:25.941Z,70.38
2023-03-17T01:07:30.398Z,70.19
2023-03-17T01:08:32.533Z,70.25
2023-03-17T01:09:35.696Z,70.11
2023-03-17T01:10:37.820Z,70.11
2023-03-17T01:11:40.721Z,70.53
2023-03-17T01:12:45.502Z,70.98
2023-03-17T01:13:49.807Z,70.56
2023-03-17T01:14:53.020Z,70.65
2023-03-17T01:15:57.072Z,71.02
2023-03-17T01:16:59.839Z,70.32
2023-03-17T01:18:03.088Z,70.23
2023-03-17T01:19:06.868Z,70.49
2023-03-17T01:20:15.891Z,71.06
2023-03-17T01:21:17.670Z,70.70
2023-03-17T01:22:22.221Z,70.99
2023-03-17T01:23:24.041Z,71.02
2023-03-17T01:24:28.472Z,71.07
2023-03-17T01:25:31.515Z,70.87
2023-03-17T01:26:34.253Z,71.15
2023-03-17T01:27:36.541Z,71.24
2023-03-17T01:28:40.253Z,70.96
2023-03-17T01:29:42.037Z,70.93
2023-03-17T01:30:46.964Z,70.53
2023-03-17T01:31:49.218Z,70.84
2023-03-17T01:32:52.119Z,70.42
2023-03-17T01:33:54.372Z,70.76
2023-03-17T01:34:58.050Z,70.98
2023-03-17T01:35:59.857Z,70.61
2023-03-17T01:37:02.930Z,70.46
2023-03-17T01:38:06.077Z,70.26
2023-03-17T01:39:08.904Z,70.02
2023-03-17T01:40:14.751Z,70.05
2023-03-17T01:41:18.202Z,69.86
2023-03-17T01:42:20.845Z,70.64
2023-03-17T01:43:25.315Z,70.94
2023-03-17T01:44:27.939Z,70.77
2023-03-17T01:46:09.461Z,70.67
2023-03-17T01:47:14.590Z,71.13
2023-03-17T01:48:17.313Z,71.14
2023-03-17T01:49:24.970Z,71.41
2023-03-17T01:50:26.829Z,70.87
2023-03-17T01:51:33.228Z,70.80
2023-03-17T01:52:36.495Z,71.20
2023-03-17T01:53:39.684Z,70.89
2023-03-17T01:54:45.095Z,70.69
2023-03-17T01:55:47.853Z,70.54
2023-03-17T01:56:52.660Z,70.73
2023-03-17T01:57:56.381Z,70.86
2023-03-17T01:59:01.154Z,70.89
2023-03-17T02:00:09.580Z,71.45
2023-03-17T02:01:17.905Z,71.22
2023-03-17T02:02:25.895Z,71.24
2023-03-17T02:03:29.704Z,70.92
2023-03-17T02:04:33.106Z,70.87
2023-03-17T02:05:35.515Z,70.90
2023-03-17T02:06:55.132Z,71.29
2023-03-17T02:08:00.625Z,71.28
2023-03-17T02:09:03.469Z,71.23
2023-03-17T02:10:08.692Z,71.19
2023-03-17T02:11:12.738Z,71.23
2023-03-17T02:12:16.203Z,71.51
2023-03-17T02:13:18.471Z,71.05
2023-03-17T02:14:21.405Z,71.16
2023-03-17T02:15:24.302Z,71.35
2023-03-17T02:16:28.093Z,72.03
2023-03-17T02:17:31.974Z,71.93
2023-03-17T02:18:35.076Z,72.66
2023-03-17T02:19:37.398Z,72.45
2023-03-17T02:21:32.969Z,72.11
2023-03-17T02:22:36.550Z,72.52
2023-03-17T02:23:38.326Z,71.89
2023-03-17T02:24:44.999Z,71.54
2023-03-17T02:25:48.159Z,72.23
2023-03-17T02:26:51.963Z,72.02
2023-03-17T02:27:59.377Z,72.61
2023-03-17T02:29:01.526Z,72.63
2023-03-17T02:30:06.323Z,72.13
2023-03-17T02:31:09.411Z,72.20
2023-03-17T02:32:12.439Z,71.78
2023-03-17T02:33:14.222Z,71.84
2023-03-17T02:34:17.246Z,71.75
2023-03-17T02:35:20.359Z,71.75
2023-03-17T02:36:23.157Z,71.43
2023-03-17T02:37:27.316Z,72.16
2023-03-17T02:38:29.234Z,71.85
2023-03-17T02:39:32.260Z,72.02
2023-03-17T02:40:34.020Z,71.42
2023-03-17T02:41:37.307Z,71.40
2023-03-17T02:42:39.584Z,71.17
2023-03-17T02:43:42.874Z,71.44
2023-03-17T02:44:45.969Z,71.90
2023-03-17T02:45:47.834Z,72.46
2023-03-17T02:46:50.731Z,72.31
2023-03-17T02:47:52.987Z,72.54
2023-03-17T02:48:56.325Z,72.70
2023-03-17T02:49:59.294Z,72.44
2023-03-17T02:51:01.500Z,72.77
2023-03-17T02:52:04.812Z,72.22
2023-03-17T02:53:08.561Z,72.26
2023-03-17T02:54:11.416Z,72.28
2023-03-17T02:55:13.233Z,72.54
2023-03-17T02:56:16.757Z,72.30
2023-03-17T02:57:18.743Z,72.07
2023-03-17T02:58:22.731Z,72.18
2023-03-17T02:59:24.549Z,72.48
2023-03-17T03:00:28.442Z,72.28
2023-03-17T03:01:31.383Z,72.41
2023-03-17T03:02:33.313Z,72.51
2023-03-17T03:03:37.604Z,72.51
2023-03-17T03:04:40.443Z,72.65
2023-03-17T03:05:42.689Z,72.03
2023-03-17T03:06:45.746Z,72.18
2023-03-17T03:07:47.533Z,71.86
2023-03-17T03:08:51.800Z,72.23
2023-03-17T03:09:53.654Z,71.78
2023-03-17T03:10:56.470Z,71.80
2023-03-17T03:11:58.354Z,71.98
2023-03-17T03:13:19.609Z,71.95
2023-03-17T03:14:22.712Z,71.39
2023-03-17T03:15:24.535Z,71.63
2023-03-17T03:16:27.335Z,72.05
2023-03-17T03:17:29.732Z,72.44
2023-03-17T03:18:32.794Z,72.12
2023-03-17T03:19:34.642Z,72.43
2023-03-17T03:20:38.858Z,72.32
2023-03-17T03:21:40.724Z,72.62
2023-03-17T03:22:43.628Z,72.32
2023-03-17T03:23:46.564Z,72.71
2023-03-17T03:24:50.075Z,72.63
2023-03-17T03:25:52.837Z,73.38
2023-03-17T03:26:54.731Z,73.29
2023-03-17T03:27:57.528Z,73.46
2023-03-17T03:29:00.073Z,73.22
2023-03-17T03:30:03.145Z,72.88
2023-03-17T03:31:05.622Z,72.62
2023-03-17T03:32:08.628Z,72.44
2023-03-17T03:33:11.755Z,72.58
2023-03-17T03:34:14.564Z,72.33
2023-03-17T03:35:16.931Z,72.11
2023-03-17T03:36:20.319Z,72.06
2023-03-17T03:37:22.110Z,71.81
2023-03-17T03:38:24.898Z,72.37
2023-03-17T03:39:26.782Z,72.27
2023-03-17T03:40:31.358Z,73.18
2023-03-17T03:41:33.280Z,72.63
2023-03-17T03:42:36.269Z,73.21
2023-03-17T03:43:38.064Z,72.77
2023-03-17T03:44:40.808Z,73.20
2023-03-17T03:45:42.830Z,72.90
2023-03-17T03:46:45.775Z,72.54
2023-03-17T03:47:47.589Z,72.56
2023-03-17T03:48:50.468Z,72.34
2023-03-17T03:49:52.340Z,72.72
2023-03-17T03:50:57.764Z,72.80
2023-03-17T03:51:59.788Z,72.95
2023-03-17T03:53:02.645Z,72.73
2023-03-17T03:54:05.616Z,73.28
2023-03-17T03:55:08.928Z,72.86
2023-03-17T03:56:13.099Z,73.00
2023-03-17T03:57:15.401Z,72.46
2023-03-17T03:58:18.566Z,72.89
2023-03-17T03:59:20.892Z,73.51
2023-03-17T04:00:24.036Z,72.97
2023-03-17T04:01:26.154Z,72.71
2023-03-17T04:02:29.696Z,72.79
2023-03-17T04:03:31.625Z,72.25
2023-03-17T04:04:34.685Z,72.35
2023-03-17T04:05:36.521Z,72.48
2023-03-17T04:06:39.881Z,73.14
2023-03-17T04:07:43.161Z,72.70
2023-03-17T04:08:46.062Z,73.38
2023-03-17T04:09:49.211Z,73.34
2023-03-17T04:10:52.296Z,73.27
2023-03-17T04:11:55.477Z,72.64
2023-03-17T04:12:58.267Z,73.07
2023-03-17T04:14:00.454Z,72.52
2023-03-17T04:15:03.302Z,72.03
2023-03-17T04:16:05.758Z,72.09
2023-03-17T04:17:09.040Z,72.99
2023-03-17T04:18:11.545Z,73.44
2023-03-17T04:19:15.247Z,72.90
2023-03-17T04:20:18.253Z,72.95
2023-03-17T04:21:21.539Z,73.81
2023-03-17T04:22:23.375Z,73.71
2023-03-17T04:23:26.446Z,73.89
2023-03-17T04:24:28.832Z,73.88
2023-03-17T04:25:32.441Z,73.81
2023-03-17T04:26:34.311Z,73.80
2023-03-17T04:27:38.812Z,73.77
2023-03-17T04:28:40.809Z,73.58
2023-03-17T04:29:43.921Z,73.35
2023-03-17T04:30:45.767Z,73.57
2023-03-17T04:31:48.631Z,73.50
2023-03-17T04:32:51.161Z,73.49
2023-03-17T04:33:54.047Z,72.98
2023-03-17T04:34:55.891Z,73.49
2023-03-17T04:35:59.572Z,73.62
2023-03-17T04:37:02.469Z,73.03
2023-03-17T04:38:04.340Z,73.03
2023-03-17T04:39:07.578Z,73.73
2023-03-17T04:40:11.507Z,73.29
2023-03-17T04:41:14.590Z,72.82
2023-03-17T04:42:16.522Z,72.79
2023-03-17T04:43:20.641Z,72.83
2023-03-17T04:44:22.432Z,73.20
2023-03-17T04:45:25.721Z,72.78
2023-03-17T04:46:27.603Z,72.89
2023-03-17T04:47:30.950Z,73.02
2023-03-17T04:48:32.923Z,72.75
2023-03-17T04:49:35.808Z,73.15
2023-03-17T04:50:37.564Z,72.71
2023-03-17T04:51:41.174Z,73.37
2023-03-17T04:52:42.965Z,73.06
2023-03-17T04:53:46.097Z,73.76
2023-03-17T04:54:47.993Z,73.50
2023-03-17T04:55:51.514Z,73.94
2023-03-17T04:56:53.333Z,73.25
2023-03-17T04:57:56.224Z,73.70
2023-03-17T04:58:59.542Z,73.68
2023-03-17T05:00:02.317Z,73.65
2023-03-17T05:01:05.137Z,73.71
2023-03-17T05:02:08.277Z,73.82
2023-03-17T05:03:25.816Z,73.37
2023-03-17T05:04:31.995Z,72.95
2023-03-17T05:05:34.544Z,73.31
2023-03-17T05:06:37.683Z,72.67
2023-03-17T05:07:40.052Z,73.06
2023-03-17T05:08:44.786Z,73.33
2023-03-17T05:09:47.489Z,73.92
2023-03-17T05:10:51.049Z,74.19
2023-03-17T05:11:52.806Z,74.38
2023-03-17T05:12:55.701Z,73.87
2023-03-17T05:13:59.147Z,73.92
2023-03-17T05:15:01.934Z,74.46
2023-03-17T05:16:03.975Z,74.23
2023-03-17T05:17:07.168Z,74.16
2023-03-17T05:18:08.917Z,74.20
2023-03-17T05:19:11.745Z,74.38
2023-03-17T05:20:14.405Z,74.49
2023-03-17T05:21:17.345Z,75.04
2023-03-17T05:22:19.537Z,75.25
2023-03-17T05:23:23.410Z,75.66
2023-03-17T05:24:25.242Z,74.84
2023-03-17T05:25:27.996Z,74.99
2023-03-17T05:26:29.827Z,74.76
2023-03-17T05:27:32.846Z,74.27
2023-03-17T05:28:34.780Z,74.36
2023-03-17T05:29:39.213Z,74.14
2023-03-17T05:30:42.016Z,74.38
2023-03-17T05:31:44.910Z,74.07
2023-03-17T05:32:47.201Z,74.43
2023-03-17T05:33:51.018Z,74.54
2023-03-17T05:34:53.176Z,74.57
2023-03-17T05:35:56.289Z,74.46
2023-03-17T05:36:58.105Z,74.21
2023-03-17T05:38:00.937Z,73.91
2023-03-17T05:39:04.008Z,73.30
2023-03-17T05:40:08.265Z,73.51
2023-03-17T05:41:10.669Z,74.24
2023-03-17T05:42:13.863Z,73.88
2023-03-17T05:43:15.590Z,74.58
2023-03-17T05:44:18.483Z,74.97
2023-03-17T05:45:22.075Z,75.33
2023-03-17T05:46:24.883Z,75.65
2023-03-17T05:47:26.666Z,75.94
2023-03-17T05:48:29.469Z,75.74
2023-03-17T05:49:31.542Z,74.78
2023-03-17T05:50:34.350Z,74.79
2023-03-17T05:51:37.076Z,75.35
2023-03-17T05:52:40.036Z,75.84
2023-03-17T05:53:43.321Z,76.46
2023-03-17T05:54:47.911Z,76.62
2023-03-17T05:55:52.337Z,76.49
2023-03-17T05:56:54.167Z,76.47
2023-03-17T05:57:57.362Z,76.69
2023-03-17T05:58:59.749Z,77.03
2023-03-17T06:00:05.376Z,76.78
2023-03-17T06:01:09.247Z,76.68
2023-03-17T06:02:13.211Z,76.72
2023-03-17T06:03:16.141Z,76.69
2023-03-17T06:04:18.021Z,76.63
2023-03-17T06:05:20.800Z,76.26
2023-03-17T06:06:23.326Z,75.72
2023-03-17T06:07:28.384Z,75.11
2023-03-17T06:08:33.866Z,75.24
2023-03-17T06:09:35.706Z,74.78
2023-03-17T06:10:39.231Z,74.87
2023-03-17T06:11:41.730Z,74.14
2023-03-17T06:12:44.532Z,74.44
2023-03-17T06:13:46.918Z,74.07
2023-03-17T06:14:49.682Z,74.06
2023-03-17T06:15:52.151Z,74.34
2023-03-17T06:16:57.420Z,74.48
2023-03-17T06:17:59.424Z,74.64
2023-03-17T06:19:02.288Z,73.59
2023-03-17T06:20:05.410Z,73.83
2023-03-17T06:21:08.181Z,72.73
2023-03-17T06:22:10.107Z,73.33
2023-03-17T06:23:13.577Z,72.90
2023-03-17T06:24:15.653Z,72.77
2023-03-17T06:25:18.836Z,71.96
2023-03-17T06:26:20.676Z,72.00
2023-03-17T06:27:23.646Z,71.60
2023-03-17T06:28:25.739Z,71.75
2023-03-17T06:29:30.051Z,70.64
2023-03-17T06:30:32.971Z,71.05
2023-03-17T06:31:35.976Z,71.45
2023-03-17T06:32:40.334Z,71.41
2023-03-17T06:33:42.258Z,70.29
2023-03-17T06:34:45.148Z,69.91
2023-03-17T06:35:47.467Z,70.25
2023-03-17T06:36:50.492Z,69.84
2023-03-17T06:37:54.046Z,69.39
2023-03-17T06:38:58.431Z,68.15
2023-03-17T06:40:01.147Z,69.46
2023-03-17T06:41:03.922Z,69.00
2023-03-17T06:42:06.470Z,69.38
2023-03-17T06:43:09.298Z,68.54
2023-03-17T06:44:11.343Z,68.59
2023-03-17T06:45:14.522Z,68.66
2023-03-17T06:46:16.668Z,68.38
2023-03-17T06:47:19.863Z,68.81
2023-03-17T06:48:24.215Z,68.30
2023-03-17T06:49:26.457Z,68.12
2023-03-17T06:50:29.285Z,67.95
2023-03-17T06:51:32.381Z,68.32
2023-03-17T06:52:35.158Z,66.44
2023-03-17T06:53:37.300Z,66.82
2023-03-17T06:54:41.278Z,66.07
2023-03-17T06:55:44.949Z,65.55
2023-03-17T06:56:46.826Z,65.00
2023-03-17T06:57:51.293Z,66.03
2023-03-17T06:58:53.889Z,64.92
2023-03-17T06:59:56.705Z,65.14
2023-03-17T07:00:59.773Z,64.42
2023-03-17T07:02:02.595Z,63.70
2023-03-17T07:03:05.804Z,65.27
2023-03-17T07:04:09.531Z,65.12
2023-03-17T07:05:13.979Z,65.37
2023-03-17T07:06:15.788Z,65.17
2023-03-17T07:07:20.230Z,64.20
2023-03-17T07:08:23.037Z,64.69
2023-03-17T07:09:25.794Z,65.20
2023-03-17T07:10:28.549Z,63.68
2023-03-17T07:11:32.692Z,63.16
2023-03-17T07:12:34.464Z,62.50
2023-03-17T07:13:38.789Z,63.53
2023-03-17T07:14:40.612Z,62.23
2023-03-17T07:15:45.756Z,62.16
2023-03-17T07:16:50.210Z,61.54
2023-03-17T07:17:52.115Z,62.50
2023-03-17T07:18:55.246Z,62.90
2023-03-17T07:20:00.032Z,62.18
2023-03-17T07:21:02.358Z,61.55
2023-03-17T07:22:05.173Z,61.75
2023-03-17T07:23:07.533Z,61.66
2023-03-17T07:24:12.411Z,60.94
2023-03-17T07:25:15.236Z,59.43
2023-03-17T07:26:17.135Z,60.16
2023-03-17T07:27:22.862Z,59.91
2023-03-17T07:28:25.118Z,60.02
2023-03-17T07:29:29.155Z,60.22
2023-03-17T07:30:31.037Z,59.33
2023-03-17T07:31:34.204Z,58.76
2023-03-17T07:32:37.621Z,58.77
2023-03-17T07:33:40.649Z,59.99
2023-03-17T07:34:43.439Z,59.67
2023-03-17T07:35:47.254Z,58.71
2023-03-17T07:36:50.176Z,57.34
2023-03-17T07:37:51.962Z,58.73
2023-03-17T07:38:55.308Z,58.90
2023-03-17T07:39:57.246Z,58.51
2023-03-17T07:41:00.768Z,58.30
2023-03-17T07:42:04.095Z,57.51
2023-03-17T07:43:06.558Z,55.79
2023-03-17T07:44:09.588Z,54.79
2023-03-17T07:45:11.912Z,55.92
2023-03-17T07:46:14.725Z,56.17
2023-03-17T07:47:16.683Z,56.68
2023-03-17T07:48:19.936Z,56.74
2023-03-17T07:49:38.091Z,55.32
2023-03-17T07:50:43.441Z,55.79
2023-03-17T07:51:46.884Z,54.67
2023-03-17T07:52:49.805Z,54.55
2023-03-17T07:53:52.996Z,54.20
2023-03-17T07:54:56.091Z,54.47
2023-03-17T07:55:57.886Z,53.78
2023-03-17T07:57:00.925Z,53.25
2023-03-17T07:58:03.012Z,54.05
2023-03-17T07:59:06.577Z,52.31
2023-03-17T08:00:13.501Z,53.48
2023-03-17T08:01:16.476Z,53.19
2023-03-17T08:02:19.978Z,53.91
2023-03-17T08:03:21.860Z,53.85
2023-03-17T08:04:24.707Z,53.42
2023-03-17T08:05:27.089Z,53.32
2023-03-17T08:06:30.062Z,52.39
2023-03-17T08:07:33.496Z,51.30
2023-03-17T08:08:36.978Z,50.76
2023-03-17T08:09:38.883Z,51.45
2023-03-17T08:10:42.248Z,51.98
2023-03-17T08:11:44.049Z,51.25
2023-03-17T08:12:51.918Z,51.54
2023-03-17T08:13:53.779Z,51.80
2023-03-17T08:14:56.593Z,50.62
2023-03-17T08:15:59.372Z,51.93
2023-03-17T08:17:01.254Z,52.04
2023-03-17T08:18:04.040Z,50.32
2023-03-17T08:19:06.803Z,50.48
2023-03-17T08:20:44.028Z,48.70
2023-03-17T08:21:46.144Z,50.33
2023-03-17T08:22:51.076Z,49.77
2023-03-17T08:23:52.835Z,50.52
2023-03-17T08:24:55.736Z,50.09
2023-03-17T08:25:57.980Z,48.27
2023-03-17T08:27:01.029Z,48.50
2023-03-17T08:28:04.500Z,47.92
2023-03-17T08:29:08.067Z,47.68
2023-03-17T08:30:12.578Z,47.19
2023-03-17T08:31:17.404Z,47.26
2023-03-17T08:32:19.569Z,48.14
2023-03-17T08:33:23.473Z,47.77
2023-03-17T08:34:26.451Z,46.98
2023-03-17T08:35:30.244Z,46.82
2023-03-17T08:36:32.139Z,45.62
2023-03-17T08:37:34.952Z,46.30
2023-03-17T08:38:40.091Z,46.40
2023-03-17T08:39:42.915Z,44.75
2023-03-17T08:40:44.748Z,45.09
2023-03-17T08:41:47.699Z,45.01
2023-03-17T08:42:51.138Z,44.75
2023-03-17T08:43:53.045Z,44.36
2023-03-17T08:44:55.890Z,44.19
2023-03-17T08:46:02.666Z,45.46
2023-03-17T08:47:05.553Z,45.44
2023-03-17T08:48:08.417Z,46.52
2023-03-17T08:49:10.678Z,46.49
2023-03-17T08:50:19.530Z,46.21
2023-03-17T08:51:24.487Z,45.56
2023-03-17T08:52:27.621Z,45.23
2023-03-17T08:53:29.818Z,45.37
2023-03-17T08:54:36.882Z,45.88
2023-03-17T08:55:38.726Z,45.71
2023-03-17T08:56:42.946Z,46.13
2023-03-17T08:57:47.335Z,44.98
2023-03-17T08:58:50.809Z,45.24
2023-03-17T08:59:53.631Z,45.42
2023-03-17T09:00:58.776Z,45.04
2023-03-17T09:02:01.625Z,43.81
2023-03-17T09:03:05.697Z,42.66
2023-03-17T09:04:08.856Z,43.79
2023-03-17T09:05:14.006Z,43.39
2023-03-17T09:06:15.773Z,44.22
2023-03-17T09:07:18.870Z,43.81
2023-03-17T09:08:21.751Z,43.52
2023-03-17T09:09:24.567Z,44.14
2023-03-17T09:10:29.155Z,43.36
2023-03-17T09:11:33.598Z,43.84
2023-03-17T09:12:35.549Z,43.03
2023-03-17T09:13:39.091Z,44.21
2023-03-17T09:14:44.315Z,43.55
2023-03-17T09:15:47.299Z,44.99
2023-03-17T09:16:49.635Z,44.70
2023-03-17T09:17:52.403Z,41.46
2023-03-17T09:18:54.262Z,43.21
2023-03-17T09:19:57.383Z,42.91
2023-03-17T09:20:59.389Z,41.84
2023-03-17T09:22:03.093Z,41.39
2023-03-17T09:23:07.875Z,42.15
2023-03-17T09:24:11.171Z,41.31
2023-03-17T09:25:12.966Z,42.79
2023-03-17T09:26:17.431Z,42.88
2023-03-17T09:27:20.418Z,42.62
2023-03-17T09:28:22.253Z,43.19
2023-03-17T09:29:25.159Z,42.59
2023-03-17T09:30:27.921Z,42.69
2023-03-17T09:31:29.715Z,43.22
2023-03-17T09:32:32.755Z,43.81
2023-03-17T09:33:34.652Z,43.36
2023-03-17T09:34:37.468Z,43.86
2023-03-17T09:35:41.107Z,44.44
2023-03-17T09:36:43.972Z,44.39
2023-03-17T09:37:46.224Z,44.10
2023-03-17T09:38:49.139Z,43.72
2023-03-17T09:39:52.030Z,44.58
2023-03-17T09:40:57.024Z,43.00
2023-03-17T09:42:08.959Z,42.45
2023-03-17T09:43:20.278Z,42.24
2023-03-17T09:44:30.321Z,41.55
2023-03-17T09:45:34.953Z,41.65
2023-03-17T09:46:46.158Z,42.43
2023-03-17T09:48:04.798Z,42.30
2023-03-17T09:49:08.059Z,41.98
2023-03-17T09:50:14.806Z,42.72
2023-03-17T09:51:18.344Z,42.13
2023-03-17T09:52:27.216Z,42.17
2023-03-17T09:53:34.089Z,42.70
2023-03-17T09:54:38.103Z,41.52
2023-03-17T09:55:41.646Z,41.99
2023-03-17T09:56:47.771Z,42.75
2023-03-17T09:57:52.071Z,41.76
2023-03-17T09:58:58.606Z,41.29
2023-03-17T10:00:06.369Z,41.10
2023-03-17T10:01:12.797Z,42.18
2023-03-17T10:02:19.362Z,41.66
2023-03-17T10:03:22.233Z,41.97
2023-03-17T10:04:25.176Z,41.40
2023-03-17T10:05:28.909Z,41.64
2023-03-17T10:06:35.550Z,41.43
2023-03-17T10:07:44.059Z,41.06
2023-03-17T10:08:50.488Z,41.73
2023-03-17T10:09:59.312Z,40.95
2023-03-17T10:11:05.072Z,41.20
2023-03-17T10:12:11.745Z,41.00
2023-03-17T10:13:24.275Z,40.34
2023-03-17T10:14:46.164Z,40.57
2023-03-17T10:15:50.356Z,40.37
2023-03-17T10:16:55.936Z,40.94
2023-03-17T10:17:58.588Z,40.54
2023-03-17T10:19:04.460Z,41.05
2023-03-17T10:20:10.371Z,41.39
2023-03-17T10:21:14.196Z,40.58
2023-03-17T10:22:23.704Z,40.25
2023-03-17T10:23:28.221Z,40.34
2023-03-17T10:24:33.483Z,40.26
2023-03-17T10:25:36.600Z,39.64
2023-03-17T10:26:43.382Z,39.79
2023-03-17T10:27:48.875Z,39.95
2023-03-17T10:28:54.295Z,40.54
2023-03-17T10:29:57.041Z,38.73
2023-03-17T10:31:03.817Z,39.78
2023-03-17T10:32:09.228Z,39.84
2023-03-17T10:33:11.417Z,39.37
2023-03-17T10:34:15.967Z,39.94
2023-03-17T10:35:18.720Z,40.01
2023-03-17T10:36:34.880Z,40.45
2023-03-17T10:37:37.677Z,39.92
2023-03-17T10:38:39.535Z,40.56
2023-03-17T10:39:47.189Z,40.29
2023-03-17T10:40:57.538Z,38.14
2023-03-17T10:42:04.095Z,38.34
2023-03-17T10:43:08.775Z,38.96
2023-03-17T10:44:22.230Z,40.57
2023-03-17T10:45:29.336Z,40.68
2023-03-17T10:46:33.334Z,40.03
2023-03-17T10:47:39.602Z,40.55
2023-03-17T10:48:41.559Z,39.12
2023-03-17T10:49:46.065Z,38.08
2023-03-17T10:50:49.708Z,39.04
2023-03-17T10:51:53.017Z,39.38
2023-03-17T10:53:00.602Z,39.28
2023-03-17T10:54:08.053Z,37.99
2023-03-17T10:55:15.216Z,37.61
2023-03-17T10:56:22.535Z,37.80
2023-03-17T10:57:25.323Z,35.48
2023-03-17T10:58:38.361Z,37.55
2023-03-17T10:59:44.876Z,37.74
2023-03-17T11:00:55.281Z,37.91
2023-03-17T11:01:59.334Z,38.01
2023-03-17T11:03:10.121Z,38.51
2023-03-17T11:04:27.400Z,38.76
2023-03-17T11:05:31.256Z,37.72
2023-03-17T11:06:39.188Z,37.60
2023-03-17T11:07:41.086Z,36.98
2023-03-17T11:08:48.868Z,37.44
2023-03-17T11:09:52.523Z,37.15
2023-03-17T11:10:56.864Z,37.05
2023-03-17T11:12:04.386Z,36.90
2023-03-17T11:13:08.251Z,35.85
2023-03-17T11:14:13.342Z,36.94
2023-03-17T11:15:20.152Z,36.96
2023-03-17T11:16:23.745Z,37.30
2023-03-17T11:17:34.993Z,37.30
2023-03-17T11:18:37.931Z,35.78
2023-03-17T11:19:46.106Z,34.37
2023-03-17T11:20:54.255Z,34.72
2023-03-17T11:22:04.831Z,34.88
2023-03-17T11:23:10.766Z,34.62
2023-03-17T11:24:17.372Z,35.80
2023-03-17T11:25:20.135Z,35.64
2023-03-17T11:26:39.818Z,35.37
2023-03-17T11:27:44.730Z,35.70
2023-03-17T11:28:51.771Z,35.71
2023-03-17T11:30:07.334Z,34.32
2023-03-17T11:31:15.365Z,34.61
2023-03-17T11:32:26.592Z,34.67
2023-03-17T11:33:35.407Z,35.69
2023-03-17T11:34:52.044Z,34.97
2023-03-17T11:35:58.195Z,35.14
2023-03-17T11:37:06.893Z,34.08
2023-03-17T11:38:20.519Z,34.24
2023-03-17T11:39:25.884Z,35.00
2023-03-17T11:40:32.642Z,35.00
2023-03-17T11:41:46.447Z,34.38
2023-03-17T11:42:55.382Z,34.27
2023-03-17T11:44:25.078Z,34.21
2023-03-17T11:45:29.810Z,34.64
2023-03-17T11:46:36.918Z,35.36
2023-03-17T11:47:45.789Z,34.34
2023-03-17T11:48:52.946Z,34.01
2023-03-17T11:50:01.743Z,33.59
2023-03-17T11:51:08.260Z,34.03
2023-03-17T11:52:21.938Z,35.19
2023-03-17T11:53:37.725Z,35.40
2023-03-17T11:54:46.989Z,35.79
2023-03-17T11:55:51.758Z,35.83
2023-03-17T11:56:56.776Z,35.31
2023-03-17T11:58:01.371Z,35.68
2023-03-17T11:59:06.771Z,35.63
2023-03-17T12:00:17.088Z,35.76
2023-03-17T12:01:22.598Z,34.56
2023-03-17T12:02:29.992Z,35.00
2023-03-17T12:03:39.467Z,34.75
2023-03-17T12:04:48.670Z,34.97
2023-03-17T12:05:55.587Z,34.08
2023-03-17T12:07:06.160Z,34.65
2023-03-17T12:08:13.449Z,35.48
2023-03-17T12:09:23.524Z,35.45
2023-03-17T12:10:29.395Z,35.02
2023-03-17T12:11:33.512Z,35.05
2023-03-17T12:12:39.693Z,35.24
2023-03-17T12:13:46.150Z,34.66
2023-03-17T12:14:49.440Z,34.68
2023-03-17T12:15:54.446Z,34.57
2023-03-17T12:17:04.774Z,34.81
2023-03-17T12:18:12.241Z,34.72
2023-03-17T12:19:19.394Z,34.95
2023-03-17T12:20:27.865Z,35.17
2023-03-17T12:21:36.903Z,34.86
2023-03-17T12:22:43.957Z,34.60
2023-03-17T12:23:48.194Z,33.92
2023-03-17T12:24:56.848Z,33.83
2023-03-17T12:26:05.122Z,33.64
2023-03-17T12:27:12.161Z,33.68
2023-03-17T12:28:17.585Z,33.70
2023-03-17T12:29:26.316Z,34.50
2023-03-17T12:30:32.580Z,34.15
2023-03-17T12:31:37.230Z,33.67
2023-03-17T12:32:42.367Z,33.72
2023-03-17T12:33:51.775Z,33.47
2023-03-17T12:34:57.281Z,33.86
2023-03-17T12:36:01.495Z,33.53
2023-03-17T12:37:03.838Z,33.67
2023-03-17T12:38:10.814Z,33.75
2023-03-17T12:39:16.318Z,32.38
2023-03-17T12:40:21.258Z,32.64
2023-03-17T12:41:40.104Z,32.34
2023-03-17T12:42:47.066Z,32.51
2023-03-17T12:44:01.688Z,32.10
2023-03-17T12:45:27.427Z,30.44
2023-03-17T12:46:51.608Z,31.67
2023-03-17T12:48:14.484Z,31.75
2023-03-17T12:49:36.823Z,31.03
2023-03-17T12:50:50.704Z,32.32
2023-03-17T12:52:04.188Z,31.97
2023-03-17T12:53:26.716Z,30.46
2023-03-17T12:54:31.901Z,31.68
2023-03-17T12:55:36.316Z,31.69
2023-03-17T12:56:44.970Z,31.44
2023-03-17T12:57:48.140Z,31.35
2023-03-17T12:58:52.099Z,31.15
2023-03-17T13:00:00.381Z,31.56
2023-03-17T13:01:09.194Z,31.51
2023-03-17T13:02:18.553Z,31.79
2023-03-17T13:03:24.885Z,32.05
2023-03-17T13:04:32.848Z,32.16
2023-03-17T13:05:37.245Z,32.07
2023-03-17T13:06:42.990Z,32.50
2023-03-17T13:07:49.956Z,32.62
2023-03-17T13:08:54.032Z,31.41
2023-03-17T13:10:13.945Z,28.30
2023-03-17T13:11:27.642Z,30.11
2023-03-17T13:12:56.524Z,29.69
2023-03-17T13:14:15.360Z,31.58
2023-03-17T13:15:30.725Z,32.06
2023-03-17T13:16:35.338Z,32.25
2023-03-17T13:17:37.130Z,31.75
2023-03-17T13:18:49.885Z,30.97
2023-03-17T13:20:04.993Z,31.23
2023-03-17T13:21:12.818Z,31.01
2023-03-17T13:22:36.322Z,28.17
2023-03-17T13:23:41.804Z,31.05
2023-03-17T13:24:48.388Z,31.12
2023-03-17T13:25:53.451Z,31.28
2023-03-17T13:26:58.407Z,31.52
2023-03-17T13:28:25.675Z,30.73
2023-03-17T13:29:47.107Z,31.40
2023-03-17T13:31:10.196Z,30.46
2023-03-17T13:32:51.184Z,30.69
2023-03-17T13:33:54.190Z,31.91
2023-03-17T13:35:16.081Z,30.79
2023-03-17T13:36:34.097Z,31.48
2023-03-17T13:37:49.404Z,30.45
2023-03-17T13:39:18.366Z,30.35
2023-03-17T13:40:23.973Z,30.92
2023-03-17T13:41:41.213Z,31.28
2023-03-17T13:42:54.606Z,31.98
2023-03-17T13:44:06.646Z,31.75
2023-03-17T13:45:25.969Z,30.17
2023-03-17T13:46:32.503Z,31.42
2023-03-17T13:47:36.805Z,32.06
2023-03-17T13:48:40.782Z,31.40
2023-03-17T13:49:47.944Z,30.73
2023-03-17T13:50:58.151Z,30.96
2023-03-17T13:52:05.696Z,31.06
2023-03-17T13:53:10.470Z,31.77
2023-03-17T13:54:22.756Z,31.81
2023-03-17T13:55:36.917Z,30.90
2023-03-17T13:56:50.179Z,30.35
2023-03-17T13:57:57.029Z,30.84